sensor_id;sensor_type;location;lat;lon;timestamp;P1;durP1;ratioP1;P2;durP2;ratioP2
5604;SDS011;9297;47.258;11.362;2023-11-18T00:01:58;8.90;;;7.80;;
5604;SDS011;9297;47.258;11.362;2023-11-18T00:04:27;9.10;;;8.00;;
5604;SDS011;9297;47.258;11.362;2023-11-18T00:06:54;8.37;;;7.57;;
5604;SDS011;9297;47.258;11.362;2023-11-18T00:09:21;11.77;;;8.00;;
5604;SDS011;9297;47.258;11.362;2023-11-18T00:11:48;10.03;;;8.73;;
5604;SDS011;9297;47.258;11.362;2023-11-18T00:14:15;13.33;;;9.93;;
5604;SDS011;9297;47.258;11.362;2023-11-18T00:16:42;10.37;;;9.37;;
5604;SDS011;9297;47.258;11.362;2023-11-18T00:19:10;9.87;;;7.70;;
5604;SDS011;9297;47.258;11.362;2023-11-18T00:21:38;9.37;;;8.37;;
5604;SDS011;9297;47.258;11.362;2023-11-18T00:24:06;10.57;;;8.67;;
5604;SDS011;9297;47.258;11.362;2023-11-18T00:26:33;11.23;;;9.03;;
5604;SDS011;9297;47.258;11.362;2023-11-18T00:29:00;11.00;;;9.77;;
5604;SDS011;9297;47.258;11.362;2023-11-18T00:31:27;11.07;;;9.93;;
5604;SDS011;9297;47.258;11.362;2023-11-18T00:33:55;10.23;;;9.13;;
5604;SDS011;9297;47.258;11.362;2023-11-18T00:36:22;12.70;;;9.50;;
5604;SDS011;9297;47.258;11.362;2023-11-18T00:38:50;9.53;;;8.20;;
5604;SDS011;9297;47.258;11.362;2023-11-18T00:41:17;11.30;;;9.40;;
5604;SDS011;9297;47.258;11.362;2023-11-18T00:43:44;10.33;;;8.70;;
5604;SDS011;9297;47.258;11.362;2023-11-18T00:46:12;9.30;;;8.10;;
5604;SDS011;9297;47.258;11.362;2023-11-18T00:48:39;9.90;;;8.47;;
5604;SDS011;9297;47.258;11.362;2023-11-18T00:51:06;8.97;;;8.07;;
5604;SDS011;9297;47.258;11.362;2023-11-18T00:53:33;10.20;;;8.20;;
5604;SDS011;9297;47.258;11.362;2023-11-18T00:56:01;10.37;;;8.57;;
5604;SDS011;9297;47.258;11.362;2023-11-18T00:58:29;10.93;;;8.97;;
5604;SDS011;9297;47.258;11.362;2023-11-18T01:00:56;9.03;;;8.13;;
5604;SDS011;9297;47.258;11.362;2023-11-18T01:03:23;9.67;;;8.30;;
5604;SDS011;9297;47.258;11.362;2023-11-18T01:05:51;9.17;;;7.90;;
5604;SDS011;9297;47.258;11.362;2023-11-18T01:08:18;8.57;;;7.67;;
5604;SDS011;9297;47.258;11.362;2023-11-18T01:10:45;9.07;;;7.83;;
5604;SDS011;9297;47.258;11.362;2023-11-18T01:13:13;8.10;;;7.30;;
5604;SDS011;9297;47.258;11.362;2023-11-18T01:15:40;9.20;;;7.13;;
5604;SDS011;9297;47.258;11.362;2023-11-18T01:18:07;6.47;;;5.87;;
5604;SDS011;9297;47.258;11.362;2023-11-18T01:20:35;6.60;;;6.00;;
5604;SDS011;9297;47.258;11.362;2023-11-18T01:23:02;6.53;;;5.93;;
5604;SDS011;9297;47.258;11.362;2023-11-18T01:25:29;6.80;;;6.10;;
5604;SDS011;9297;47.258;11.362;2023-11-18T01:27:57;7.07;;;6.40;;
5604;SDS011;9297;47.258;11.362;2023-11-18T01:30:25;7.57;;;6.87;;
5604;SDS011;9297;47.258;11.362;2023-11-18T01:32:52;6.77;;;5.97;;
5604;SDS011;9297;47.258;11.362;2023-11-18T01:35:20;6.90;;;6.20;;
5604;SDS011;9297;47.258;11.362;2023-11-18T01:37:47;5.93;;;5.40;;
5604;SDS011;9297;47.258;11.362;2023-11-18T01:40:14;5.63;;;5.10;;
5604;SDS011;9297;47.258;11.362;2023-11-18T01:42:41;5.40;;;4.90;;
5604;SDS011;9297;47.258;11.362;2023-11-18T01:45:09;5.00;;;4.50;;
5604;SDS011;9297;47.258;11.362;2023-11-18T01:47:38;5.43;;;4.93;;
5604;SDS011;9297;47.258;11.362;2023-11-18T01:50:07;5.07;;;4.67;;
5604;SDS011;9297;47.258;11.362;2023-11-18T01:52:35;4.60;;;4.20;;
5604;SDS011;9297;47.258;11.362;2023-11-18T01:55:03;5.07;;;4.40;;
5604;SDS011;9297;47.258;11.362;2023-11-18T01:57:31;4.73;;;4.33;;
5604;SDS011;9297;47.258;11.362;2023-11-18T01:59:58;4.67;;;4.27;;
5604;SDS011;9297;47.258;11.362;2023-11-18T02:02:26;4.33;;;4.03;;
5604;SDS011;9297;47.258;11.362;2023-11-18T02:04:55;4.20;;;3.80;;
5604;SDS011;9297;47.258;11.362;2023-11-18T02:07:22;4.67;;;4.27;;
5604;SDS011;9297;47.258;11.362;2023-11-18T02:09:50;4.10;;;3.80;;
5604;SDS011;9297;47.258;11.362;2023-11-18T02:12:19;4.60;;;4.20;;
5604;SDS011;9297;47.258;11.362;2023-11-18T02:14:52;4.10;;;3.80;;
5604;SDS011;9297;47.258;11.362;2023-11-18T02:17:21;4.40;;;4.00;;
5604;SDS011;9297;47.258;11.362;2023-11-18T02:19:48;5.83;;;5.17;;
5604;SDS011;9297;47.258;11.362;2023-11-18T02:22:19;6.60;;;5.80;;
5604;SDS011;9297;47.258;11.362;2023-11-18T02:24:46;8.13;;;6.90;;
5604;SDS011;9297;47.258;11.362;2023-11-18T02:27:14;8.90;;;7.47;;
5604;SDS011;9297;47.258;11.362;2023-11-18T02:29:44;9.10;;;7.40;;
5604;SDS011;9297;47.258;11.362;2023-11-18T02:32:13;8.73;;;7.50;;
5604;SDS011;9297;47.258;11.362;2023-11-18T02:34:47;8.83;;;7.50;;
5604;SDS011;9297;47.258;11.362;2023-11-18T02:37:18;9.87;;;7.47;;
5604;SDS011;9297;47.258;11.362;2023-11-18T02:39:48;9.53;;;8.37;;
5604;SDS011;9297;47.258;11.362;2023-11-18T02:42:20;8.40;;;7.57;;
5604;SDS011;9297;47.258;11.362;2023-11-18T02:44:48;10.13;;;8.43;;
5604;SDS011;9297;47.258;11.362;2023-11-18T02:47:19;9.47;;;8.13;;
5604;SDS011;9297;47.258;11.362;2023-11-18T02:49:49;8.53;;;7.63;;
5604;SDS011;9297;47.258;11.362;2023-11-18T02:52:20;10.23;;;7.87;;
5604;SDS011;9297;47.258;11.362;2023-11-18T02:54:48;11.67;;;9.30;;
5604;SDS011;9297;47.258;11.362;2023-11-18T02:57:15;14.17;;;10.00;;
5604;SDS011;9297;47.258;11.362;2023-11-18T02:59:43;13.10;;;9.77;;
5604;SDS011;9297;47.258;11.362;2023-11-18T03:02:10;11.33;;;9.03;;
5604;SDS011;9297;47.258;11.362;2023-11-18T03:04:37;12.10;;;9.50;;
5604;SDS011;9297;47.258;11.362;2023-11-18T03:07:05;12.50;;;9.13;;
5604;SDS011;9297;47.258;11.362;2023-11-18T03:09:32;14.27;;;10.63;;
5604;SDS011;9297;47.258;11.362;2023-11-18T03:12:00;12.17;;;8.97;;
5604;SDS011;9297;47.258;11.362;2023-11-18T03:14:27;11.90;;;9.83;;
5604;SDS011;9297;47.258;11.362;2023-11-18T03:16:55;9.10;;;7.83;;
5604;SDS011;9297;47.258;11.362;2023-11-18T03:19:22;9.93;;;8.30;;
5604;SDS011;9297;47.258;11.362;2023-11-18T03:21:50;7.40;;;6.60;;
5604;SDS011;9297;47.258;11.362;2023-11-18T03:24:17;6.77;;;6.03;;
5604;SDS011;9297;47.258;11.362;2023-11-18T03:26:44;7.30;;;6.60;;
5604;SDS011;9297;47.258;11.362;2023-11-18T03:29:12;7.03;;;5.87;;
5604;SDS011;9297;47.258;11.362;2023-11-18T03:31:39;6.47;;;5.83;;
5604;SDS011;9297;47.258;11.362;2023-11-18T03:34:07;7.13;;;6.43;;
5604;SDS011;9297;47.258;11.362;2023-11-18T03:36:34;8.17;;;6.33;;
5604;SDS011;9297;47.258;11.362;2023-11-18T03:39:01;8.57;;;7.67;;
5604;SDS011;9297;47.258;11.362;2023-11-18T03:41:28;9.23;;;7.13;;
5604;SDS011;9297;47.258;11.362;2023-11-18T03:43:56;8.20;;;7.27;;
5604;SDS011;9297;47.258;11.362;2023-11-18T03:46:23;10.37;;;8.40;;
5604;SDS011;9297;47.258;11.362;2023-11-18T03:48:51;10.87;;;9.00;;
5604;SDS011;9297;47.258;11.362;2023-11-18T03:51:19;11.63;;;9.00;;
5604;SDS011;9297;47.258;11.362;2023-11-18T03:53:46;10.83;;;8.90;;
5604;SDS011;9297;47.258;11.362;2023-11-18T03:56:16;12.30;;;9.17;;
5604;SDS011;9297;47.258;11.362;2023-11-18T03:58:43;11.00;;;8.93;;
5604;SDS011;9297;47.258;11.362;2023-11-18T04:01:10;11.47;;;8.80;;
5604;SDS011;9297;47.258;11.362;2023-11-18T04:03:37;11.83;;;9.00;;
5604;SDS011;9297;47.258;11.362;2023-11-18T04:06:05;13.43;;;10.20;;
5604;SDS011;9297;47.258;11.362;2023-11-18T04:08:34;14.83;;;9.37;;
5604;SDS011;9297;47.258;11.362;2023-11-18T04:11:01;11.03;;;9.10;;
5604;SDS011;9297;47.258;11.362;2023-11-18T04:13:28;10.40;;;8.07;;
5604;SDS011;9297;47.258;11.362;2023-11-18T04:15:55;8.10;;;6.60;;
5604;SDS011;9297;47.258;11.362;2023-11-18T04:18:22;6.77;;;5.43;;
5604;SDS011;9297;47.258;11.362;2023-11-18T04:20:50;6.07;;;5.40;;
5604;SDS011;9297;47.258;11.362;2023-11-18T04:23:17;7.87;;;6.07;;
5604;SDS011;9297;47.258;11.362;2023-11-18T04:25:45;6.07;;;5.47;;
5604;SDS011;9297;47.258;11.362;2023-11-18T04:28:13;7.50;;;6.53;;
5604;SDS011;9297;47.258;11.362;2023-11-18T04:30:40;6.40;;;5.80;;
5604;SDS011;9297;47.258;11.362;2023-11-18T04:33:07;6.07;;;5.47;;
5604;SDS011;9297;47.258;11.362;2023-11-18T04:35:34;6.47;;;5.87;;
5604;SDS011;9297;47.258;11.362;2023-11-18T04:38:01;5.80;;;5.17;;
5604;SDS011;9297;47.258;11.362;2023-11-18T04:40:28;7.00;;;6.30;;
5604;SDS011;9297;47.258;11.362;2023-11-18T04:42:56;6.50;;;6.00;;
5604;SDS011;9297;47.258;11.362;2023-11-18T04:45:24;7.73;;;6.43;;
5604;SDS011;9297;47.258;11.362;2023-11-18T04:47:51;6.33;;;5.73;;
5604;SDS011;9297;47.258;11.362;2023-11-18T04:50:19;6.33;;;5.73;;
5604;SDS011;9297;47.258;11.362;2023-11-18T04:52:46;6.77;;;6.17;;
5604;SDS011;9297;47.258;11.362;2023-11-18T04:55:13;6.20;;;5.60;;
5604;SDS011;9297;47.258;11.362;2023-11-18T04:57:40;6.57;;;5.70;;
5604;SDS011;9297;47.258;11.362;2023-11-18T05:00:10;7.63;;;6.40;;
5604;SDS011;9297;47.258;11.362;2023-11-18T05:02:38;6.50;;;5.80;;
5604;SDS011;9297;47.258;11.362;2023-11-18T05:05:05;6.73;;;5.60;;
5604;SDS011;9297;47.258;11.362;2023-11-18T05:07:33;6.37;;;5.77;;
5604;SDS011;9297;47.258;11.362;2023-11-18T05:10:00;6.47;;;5.90;;
5604;SDS011;9297;47.258;11.362;2023-11-18T05:12:27;7.13;;;6.13;;
5604;SDS011;9297;47.258;11.362;2023-11-18T05:14:55;7.23;;;6.53;;
5604;SDS011;9297;47.258;11.362;2023-11-18T05:17:23;6.47;;;5.87;;
5604;SDS011;9297;47.258;11.362;2023-11-18T05:19:51;7.30;;;6.60;;
5604;SDS011;9297;47.258;11.362;2023-11-18T05:22:18;7.63;;;6.20;;
5604;SDS011;9297;47.258;11.362;2023-11-18T05:24:45;7.20;;;6.40;;
5604;SDS011;9297;47.258;11.362;2023-11-18T05:27:13;7.00;;;6.27;;
5604;SDS011;9297;47.258;11.362;2023-11-18T05:29:40;7.90;;;6.77;;
5604;SDS011;9297;47.258;11.362;2023-11-18T05:32:07;7.77;;;6.67;;
5604;SDS011;9297;47.258;11.362;2023-11-18T05:34:36;6.57;;;5.93;;
5604;SDS011;9297;47.258;11.362;2023-11-18T05:37:04;7.80;;;6.90;;
5604;SDS011;9297;47.258;11.362;2023-11-18T05:39:31;8.87;;;7.17;;
5604;SDS011;9297;47.258;11.362;2023-11-18T05:41:58;9.93;;;8.37;;
5604;SDS011;9297;47.258;11.362;2023-11-18T05:44:25;10.17;;;8.70;;
5604;SDS011;9297;47.258;11.362;2023-11-18T05:46:52;10.47;;;8.67;;
5604;SDS011;9297;47.258;11.362;2023-11-18T05:49:19;12.10;;;8.83;;
5604;SDS011;9297;47.258;11.362;2023-11-18T05:51:48;12.73;;;9.73;;
5604;SDS011;9297;47.258;11.362;2023-11-18T05:54:15;11.43;;;9.13;;
5604;SDS011;9297;47.258;11.362;2023-11-18T05:56:42;11.57;;;9.17;;
5604;SDS011;9297;47.258;11.362;2023-11-18T05:59:09;11.63;;;8.70;;
5604;SDS011;9297;47.258;11.362;2023-11-18T06:01:37;13.50;;;9.87;;
5604;SDS011;9297;47.258;11.362;2023-11-18T06:04:04;11.40;;;9.60;;
5604;SDS011;9297;47.258;11.362;2023-11-18T06:06:31;11.97;;;9.23;;
5604;SDS011;9297;47.258;11.362;2023-11-18T06:09:00;12.50;;;9.40;;
5604;SDS011;9297;47.258;11.362;2023-11-18T06:11:27;11.90;;;9.73;;
5604;SDS011;9297;47.258;11.362;2023-11-18T06:13:54;13.73;;;9.90;;
5604;SDS011;9297;47.258;11.362;2023-11-18T06:16:22;15.13;;;10.57;;
5604;SDS011;9297;47.258;11.362;2023-11-18T06:18:50;12.43;;;9.83;;
5604;SDS011;9297;47.258;11.362;2023-11-18T06:21:18;18.30;;;10.60;;
5604;SDS011;9297;47.258;11.362;2023-11-18T06:23:47;15.23;;;11.33;;
5604;SDS011;9297;47.258;11.362;2023-11-18T06:26:16;15.77;;;11.60;;
5604;SDS011;9297;47.258;11.362;2023-11-18T06:28:44;18.43;;;12.33;;
5604;SDS011;9297;47.258;11.362;2023-11-18T06:31:12;16.37;;;12.07;;
5604;SDS011;9297;47.258;11.362;2023-11-18T06:33:39;14.20;;;10.63;;
5604;SDS011;9297;47.258;11.362;2023-11-18T06:36:07;13.00;;;10.83;;
5604;SDS011;9297;47.258;11.362;2023-11-18T06:38:35;10.50;;;9.17;;
5604;SDS011;9297;47.258;11.362;2023-11-18T06:41:02;9.00;;;7.40;;
5604;SDS011;9297;47.258;11.362;2023-11-18T06:43:35;7.73;;;6.77;;
5604;SDS011;9297;47.258;11.362;2023-11-18T06:46:03;10.00;;;7.20;;
5604;SDS011;9297;47.258;11.362;2023-11-18T06:48:30;7.43;;;6.47;;
5604;SDS011;9297;47.258;11.362;2023-11-18T06:50:57;8.20;;;6.83;;
5604;SDS011;9297;47.258;11.362;2023-11-18T06:53:24;6.30;;;5.80;;
5604;SDS011;9297;47.258;11.362;2023-11-18T06:55:52;6.83;;;6.00;;
5604;SDS011;9297;47.258;11.362;2023-11-18T06:58:19;6.80;;;6.20;;
5604;SDS011;9297;47.258;11.362;2023-11-18T07:00:48;7.17;;;6.10;;
5604;SDS011;9297;47.258;11.362;2023-11-18T07:03:15;6.17;;;5.57;;
5604;SDS011;9297;47.258;11.362;2023-11-18T07:05:42;5.20;;;4.73;;
5604;SDS011;9297;47.258;11.362;2023-11-18T07:08:12;5.57;;;5.13;;
5604;SDS011;9297;47.258;11.362;2023-11-18T07:10:40;4.47;;;4.17;;
5604;SDS011;9297;47.258;11.362;2023-11-18T07:13:07;7.27;;;5.27;;
5604;SDS011;9297;47.258;11.362;2023-11-18T07:15:34;5.80;;;5.30;;
5604;SDS011;9297;47.258;11.362;2023-11-18T07:18:04;5.70;;;5.10;;
5604;SDS011;9297;47.258;11.362;2023-11-18T07:20:31;5.60;;;5.07;;
5604;SDS011;9297;47.258;11.362;2023-11-18T07:22:58;5.07;;;4.67;;
5604;SDS011;9297;47.258;11.362;2023-11-18T07:25:26;5.07;;;4.67;;
5604;SDS011;9297;47.258;11.362;2023-11-18T07:27:55;5.70;;;5.20;;
5604;SDS011;9297;47.258;11.362;2023-11-18T07:30:22;6.10;;;5.50;;
5604;SDS011;9297;47.258;11.362;2023-11-18T07:32:49;5.77;;;5.17;;
5604;SDS011;9297;47.258;11.362;2023-11-18T07:35:18;5.57;;;5.07;;
5604;SDS011;9297;47.258;11.362;2023-11-18T07:37:46;5.37;;;4.90;;
5604;SDS011;9297;47.258;11.362;2023-11-18T07:40:16;6.50;;;5.77;;
5604;SDS011;9297;47.258;11.362;2023-11-18T07:42:46;5.53;;;5.03;;
5604;SDS011;9297;47.258;11.362;2023-11-18T07:45:13;5.63;;;5.13;;
5604;SDS011;9297;47.258;11.362;2023-11-18T07:47:40;5.30;;;4.80;;
5604;SDS011;9297;47.258;11.362;2023-11-18T07:50:08;4.93;;;4.63;;
5604;SDS011;9297;47.258;11.362;2023-11-18T07:52:37;5.60;;;5.10;;
5604;SDS011;9297;47.258;11.362;2023-11-18T07:55:04;5.33;;;4.53;;
5604;SDS011;9297;47.258;11.362;2023-11-18T07:57:32;6.30;;;5.47;;
5604;SDS011;9297;47.258;11.362;2023-11-18T07:59:59;6.10;;;4.50;;
5604;SDS011;9297;47.258;11.362;2023-11-18T08:02:26;6.87;;;6.27;;
5604;SDS011;9297;47.258;11.362;2023-11-18T08:04:53;5.73;;;5.23;;
5604;SDS011;9297;47.258;11.362;2023-11-18T08:07:21;3.17;;;2.93;;
5604;SDS011;9297;47.258;11.362;2023-11-18T08:09:49;3.90;;;3.60;;
5604;SDS011;9297;47.258;11.362;2023-11-18T08:12:16;3.20;;;3.00;;
5604;SDS011;9297;47.258;11.362;2023-11-18T08:14:43;3.80;;;3.60;;
5604;SDS011;9297;47.258;11.362;2023-11-18T08:17:10;3.90;;;3.60;;
5604;SDS011;9297;47.258;11.362;2023-11-18T08:19:37;4.53;;;4.23;;
5604;SDS011;9297;47.258;11.362;2023-11-18T08:22:13;3.60;;;3.30;;
5604;SDS011;9297;47.258;11.362;2023-11-18T08:24:40;4.20;;;3.90;;
5604;SDS011;9297;47.258;11.362;2023-11-18T08:27:08;3.47;;;3.27;;
5604;SDS011;9297;47.258;11.362;2023-11-18T08:29:35;3.87;;;3.67;;
5604;SDS011;9297;47.258;11.362;2023-11-18T08:32:03;4.20;;;3.80;;
5604;SDS011;9297;47.258;11.362;2023-11-18T08:34:31;3.97;;;3.67;;
5604;SDS011;9297;47.258;11.362;2023-11-18T08:36:58;4.73;;;4.27;;
5604;SDS011;9297;47.258;11.362;2023-11-18T08:39:26;4.57;;;4.00;;
5604;SDS011;9297;47.258;11.362;2023-11-18T08:41:53;5.10;;;4.70;;
5604;SDS011;9297;47.258;11.362;2023-11-18T08:44:21;4.17;;;3.77;;
5604;SDS011;9297;47.258;11.362;2023-11-18T08:46:50;4.20;;;3.90;;
5604;SDS011;9297;47.258;11.362;2023-11-18T08:49:18;4.33;;;3.93;;
5604;SDS011;9297;47.258;11.362;2023-11-18T08:51:45;4.17;;;3.77;;
5604;SDS011;9297;47.258;11.362;2023-11-18T08:54:12;4.07;;;3.77;;
5604;SDS011;9297;47.258;11.362;2023-11-18T08:56:39;4.40;;;4.10;;
5604;SDS011;9297;47.258;11.362;2023-11-18T08:59:08;3.87;;;3.57;;
5604;SDS011;9297;47.258;11.362;2023-11-18T09:01:37;3.93;;;3.63;;
5604;SDS011;9297;47.258;11.362;2023-11-18T09:04:04;3.80;;;3.60;;
5604;SDS011;9297;47.258;11.362;2023-11-18T09:06:31;3.73;;;3.43;;
5604;SDS011;9297;47.258;11.362;2023-11-18T09:08:59;4.03;;;3.73;;
5604;SDS011;9297;47.258;11.362;2023-11-18T09:11:26;4.13;;;3.83;;
5604;SDS011;9297;47.258;11.362;2023-11-18T09:13:53;4.00;;;3.70;;
5604;SDS011;9297;47.258;11.362;2023-11-18T09:16:23;3.87;;;3.57;;
5604;SDS011;9297;47.258;11.362;2023-11-18T09:18:52;3.77;;;3.47;;
5604;SDS011;9297;47.258;11.362;2023-11-18T09:21:22;4.10;;;3.80;;
5604;SDS011;9297;47.258;11.362;2023-11-18T09:23:49;4.30;;;4.00;;
5604;SDS011;9297;47.258;11.362;2023-11-18T09:26:17;4.70;;;4.30;;
5604;SDS011;9297;47.258;11.362;2023-11-18T09:28:45;4.63;;;4.33;;
5604;SDS011;9297;47.258;11.362;2023-11-18T09:31:12;4.10;;;3.90;;
5604;SDS011;9297;47.258;11.362;2023-11-18T09:33:40;4.17;;;3.87;;
5604;SDS011;9297;47.258;11.362;2023-11-18T09:36:09;3.50;;;3.17;;
5604;SDS011;9297;47.258;11.362;2023-11-18T09:38:37;4.67;;;3.93;;
5604;SDS011;9297;47.258;11.362;2023-11-18T09:41:05;3.70;;;3.40;;
5604;SDS011;9297;47.258;11.362;2023-11-18T09:43:34;3.83;;;3.63;;
5604;SDS011;9297;47.258;11.362;2023-11-18T09:46:03;3.97;;;3.67;;
5604;SDS011;9297;47.258;11.362;2023-11-18T09:48:31;4.17;;;3.87;;
5604;SDS011;9297;47.258;11.362;2023-11-18T09:50:59;3.27;;;3.07;;
5604;SDS011;9297;47.258;11.362;2023-11-18T09:53:29;3.50;;;3.30;;
5604;SDS011;9297;47.258;11.362;2023-11-18T09:55:59;3.90;;;3.60;;
5604;SDS011;9297;47.258;11.362;2023-11-18T09:58:37;3.47;;;3.27;;
5604;SDS011;9297;47.258;11.362;2023-11-18T10:01:13;3.30;;;3.07;;
5604;SDS011;9297;47.258;11.362;2023-11-18T10:03:46;3.33;;;3.13;;
5604;SDS011;9297;47.258;11.362;2023-11-18T10:06:17;3.13;;;2.93;;
5604;SDS011;9297;47.258;11.362;2023-11-18T10:09:00;3.23;;;3.03;;
5604;SDS011;9297;47.258;11.362;2023-11-18T10:11:34;2.70;;;2.60;;
5604;SDS011;9297;47.258;11.362;2023-11-18T10:14:03;3.07;;;2.87;;
5604;SDS011;9297;47.258;11.362;2023-11-18T10:16:35;2.67;;;2.57;;
5604;SDS011;9297;47.258;11.362;2023-11-18T10:19:11;3.07;;;2.87;;
5604;SDS011;9297;47.258;11.362;2023-11-18T10:21:39;3.20;;;2.73;;
5604;SDS011;9297;47.258;11.362;2023-11-18T10:24:15;3.33;;;2.70;;
5604;SDS011;9297;47.258;11.362;2023-11-18T10:26:56;3.10;;;2.90;;
5604;SDS011;9297;47.258;11.362;2023-11-18T10:29:33;2.27;;;2.17;;
5604;SDS011;9297;47.258;11.362;2023-11-18T10:32:14;2.17;;;2.07;;
5604;SDS011;9297;47.258;11.362;2023-11-18T10:34:47;2.50;;;2.40;;
5604;SDS011;9297;47.258;11.362;2023-11-18T10:37:17;2.50;;;2.40;;
5604;SDS011;9297;47.258;11.362;2023-11-18T10:39:50;2.50;;;2.13;;
5604;SDS011;9297;47.258;11.362;2023-11-18T10:42:43;2.50;;;2.30;;
5604;SDS011;9297;47.258;11.362;2023-11-18T10:45:23;2.47;;;2.37;;
5604;SDS011;9297;47.258;11.362;2023-11-18T10:47:52;2.23;;;2.13;;
5604;SDS011;9297;47.258;11.362;2023-11-18T10:50:26;1.70;;;1.60;;
5604;SDS011;9297;47.258;11.362;2023-11-18T10:52:57;2.23;;;2.13;;
5604;SDS011;9297;47.258;11.362;2023-11-18T10:55:37;1.97;;;1.87;;
5604;SDS011;9297;47.258;11.362;2023-11-18T10:58:05;2.43;;;2.33;;
5604;SDS011;9297;47.258;11.362;2023-11-18T11:00:54;2.40;;;2.30;;
5604;SDS011;9297;47.258;11.362;2023-11-18T11:03:30;2.80;;;2.60;;
5604;SDS011;9297;47.258;11.362;2023-11-18T11:06:15;2.10;;;2.00;;
5604;SDS011;9297;47.258;11.362;2023-11-18T11:09:06;2.67;;;2.57;;
5604;SDS011;9297;47.258;11.362;2023-11-18T11:11:46;2.80;;;2.53;;
5604;SDS011;9297;47.258;11.362;2023-11-18T11:14:25;3.27;;;2.40;;
5604;SDS011;9297;47.258;11.362;2023-11-18T11:17:16;2.07;;;1.97;;
5604;SDS011;9297;47.258;11.362;2023-11-18T11:20:05;5.57;;;3.87;;
5604;SDS011;9297;47.258;11.362;2023-11-18T11:25:38;2.30;;;2.20;;
5604;SDS011;9297;47.258;11.362;2023-11-18T11:28:21;2.33;;;2.23;;
5604;SDS011;9297;47.258;11.362;2023-11-18T11:31:07;2.10;;;2.00;;
5604;SDS011;9297;47.258;11.362;2023-11-18T11:33:49;2.13;;;2.03;;
5604;SDS011;9297;47.258;11.362;2023-11-18T11:36:29;3.57;;;2.20;;
5604;SDS011;9297;47.258;11.362;2023-11-18T11:39:12;1.80;;;1.70;;
5604;SDS011;9297;47.258;11.362;2023-11-18T11:41:50;2.50;;;2.37;;
5604;SDS011;9297;47.258;11.362;2023-11-18T11:44:31;2.17;;;2.07;;
5604;SDS011;9297;47.258;11.362;2023-11-18T11:47:10;2.73;;;2.57;;
5604;SDS011;9297;47.258;11.362;2023-11-18T11:49:57;2.20;;;2.07;;
5604;SDS011;9297;47.258;11.362;2023-11-18T11:52:32;2.23;;;2.13;;
5604;SDS011;9297;47.258;11.362;2023-11-18T11:55:12;2.60;;;2.33;;
5604;SDS011;9297;47.258;11.362;2023-11-18T11:57:49;2.43;;;2.27;;
5604;SDS011;9297;47.258;11.362;2023-11-18T12:00:18;2.50;;;2.40;;
5604;SDS011;9297;47.258;11.362;2023-11-18T12:02:52;2.60;;;2.40;;
5604;SDS011;9297;47.258;11.362;2023-11-18T12:05:20;2.63;;;2.43;;
5604;SDS011;9297;47.258;11.362;2023-11-18T12:07:49;2.07;;;1.97;;
5604;SDS011;9297;47.258;11.362;2023-11-18T12:10:19;1.63;;;1.60;;
5604;SDS011;9297;47.258;11.362;2023-11-18T12:12:46;3.03;;;2.83;;
5604;SDS011;9297;47.258;11.362;2023-11-18T12:15:13;2.47;;;2.33;;
5604;SDS011;9297;47.258;11.362;2023-11-18T12:20:39;2.00;;;1.90;;
5604;SDS011;9297;47.258;11.362;2023-11-18T12:23:06;3.67;;;2.60;;
5604;SDS011;9297;47.258;11.362;2023-11-18T12:25:34;2.30;;;1.97;;
5604;SDS011;9297;47.258;11.362;2023-11-18T12:28:10;1.67;;;1.57;;
5604;SDS011;9297;47.258;11.362;2023-11-18T12:30:41;2.10;;;1.90;;
5604;SDS011;9297;47.258;11.362;2023-11-18T12:33:09;2.57;;;2.37;;
5604;SDS011;9297;47.258;11.362;2023-11-18T12:35:40;1.90;;;1.80;;
5604;SDS011;9297;47.258;11.362;2023-11-18T12:38:31;1.87;;;1.77;;
5604;SDS011;9297;47.258;11.362;2023-11-18T12:41:22;2.10;;;1.90;;
5604;SDS011;9297;47.258;11.362;2023-11-18T12:44:04;2.30;;;2.20;;
5604;SDS011;9297;47.258;11.362;2023-11-18T12:46:47;2.27;;;2.03;;
5604;SDS011;9297;47.258;11.362;2023-11-18T12:49:17;2.67;;;2.47;;
5604;SDS011;9297;47.258;11.362;2023-11-18T12:51:45;2.53;;;2.37;;
5604;SDS011;9297;47.258;11.362;2023-11-18T12:54:12;1.83;;;1.67;;
5604;SDS011;9297;47.258;11.362;2023-11-18T12:56:39;2.07;;;1.97;;
5604;SDS011;9297;47.258;11.362;2023-11-18T12:59:07;1.73;;;1.63;;
5604;SDS011;9297;47.258;11.362;2023-11-18T13:01:34;2.20;;;2.00;;
5604;SDS011;9297;47.258;11.362;2023-11-18T13:04:01;1.77;;;1.67;;
5604;SDS011;9297;47.258;11.362;2023-11-18T13:06:30;1.70;;;1.60;;
5604;SDS011;9297;47.258;11.362;2023-11-18T13:08:57;1.50;;;1.40;;
5604;SDS011;9297;47.258;11.362;2023-11-18T13:11:24;2.33;;;2.23;;
5604;SDS011;9297;47.258;11.362;2023-11-18T13:13:52;3.27;;;2.70;;
5604;SDS011;9297;47.258;11.362;2023-11-18T13:16:19;2.70;;;2.50;;
5604;SDS011;9297;47.258;11.362;2023-11-18T13:18:47;2.10;;;2.00;;
5604;SDS011;9297;47.258;11.362;2023-11-18T13:21:14;1.57;;;1.47;;
5604;SDS011;9297;47.258;11.362;2023-11-18T13:23:46;1.70;;;1.60;;
5604;SDS011;9297;47.258;11.362;2023-11-18T13:26:18;1.50;;;1.40;;
5604;SDS011;9297;47.258;11.362;2023-11-18T13:28:46;1.70;;;1.60;;
5604;SDS011;9297;47.258;11.362;2023-11-18T13:31:13;1.53;;;1.43;;
5604;SDS011;9297;47.258;11.362;2023-11-18T13:33:41;1.50;;;1.50;;
5604;SDS011;9297;47.258;11.362;2023-11-18T13:36:09;1.03;;;1.03;;
5604;SDS011;9297;47.258;11.362;2023-11-18T13:38:37;1.40;;;1.30;;
5604;SDS011;9297;47.258;11.362;2023-11-18T13:41:05;1.40;;;1.40;;
5604;SDS011;9297;47.258;11.362;2023-11-18T13:43:43;1.47;;;1.37;;
5604;SDS011;9297;47.258;11.362;2023-11-18T13:46:11;5.03;;;3.07;;
5604;SDS011;9297;47.258;11.362;2023-11-18T13:48:38;1.60;;;1.50;;
5604;SDS011;9297;47.258;11.362;2023-11-18T13:51:06;1.70;;;1.50;;
5604;SDS011;9297;47.258;11.362;2023-11-18T13:53:35;1.30;;;1.30;;
5604;SDS011;9297;47.258;11.362;2023-11-18T13:56:02;1.53;;;1.43;;
5604;SDS011;9297;47.258;11.362;2023-11-18T13:58:31;1.20;;;1.20;;
5604;SDS011;9297;47.258;11.362;2023-11-18T14:00:59;0.90;;;0.90;;
5604;SDS011;9297;47.258;11.362;2023-11-18T14:03:26;1.93;;;1.83;;
5604;SDS011;9297;47.258;11.362;2023-11-18T14:05:57;2.37;;;1.97;;
5604;SDS011;9297;47.258;11.362;2023-11-18T14:08:25;1.43;;;1.40;;
5604;SDS011;9297;47.258;11.362;2023-11-18T14:10:52;1.53;;;1.53;;
5604;SDS011;9297;47.258;11.362;2023-11-18T14:13:30;1.83;;;1.73;;
5604;SDS011;9297;47.258;11.362;2023-11-18T14:15:58;1.60;;;1.50;;
5604;SDS011;9297;47.258;11.362;2023-11-18T14:18:25;1.80;;;1.70;;
5604;SDS011;9297;47.258;11.362;2023-11-18T14:20:52;2.47;;;1.70;;
5604;SDS011;9297;47.258;11.362;2023-11-18T14:23:21;1.93;;;1.70;;
5604;SDS011;9297;47.258;11.362;2023-11-18T14:25:48;2.40;;;2.30;;
5604;SDS011;9297;47.258;11.362;2023-11-18T14:28:15;2.63;;;2.43;;
5604;SDS011;9297;47.258;11.362;2023-11-18T14:30:44;2.43;;;2.30;;
5604;SDS011;9297;47.258;11.362;2023-11-18T14:33:11;2.57;;;2.47;;
5604;SDS011;9297;47.258;11.362;2023-11-18T14:35:38;2.53;;;2.10;;
5604;SDS011;9297;47.258;11.362;2023-11-18T14:38:05;2.20;;;2.10;;
5604;SDS011;9297;47.258;11.362;2023-11-18T14:40:32;1.90;;;1.80;;
5604;SDS011;9297;47.258;11.362;2023-11-18T14:42:59;1.87;;;1.77;;
5604;SDS011;9297;47.258;11.362;2023-11-18T14:45:27;1.93;;;1.83;;
5604;SDS011;9297;47.258;11.362;2023-11-18T14:47:55;1.90;;;1.80;;
5604;SDS011;9297;47.258;11.362;2023-11-18T14:50:23;1.70;;;1.60;;
5604;SDS011;9297;47.258;11.362;2023-11-18T14:52:51;2.20;;;2.10;;
5604;SDS011;9297;47.258;11.362;2023-11-18T14:55:18;2.53;;;1.90;;
5604;SDS011;9297;47.258;11.362;2023-11-18T14:57:45;2.13;;;2.03;;
5604;SDS011;9297;47.258;11.362;2023-11-18T15:00:13;3.73;;;2.43;;
5604;SDS011;9297;47.258;11.362;2023-11-18T15:02:40;2.40;;;2.30;;
5604;SDS011;9297;47.258;11.362;2023-11-18T15:05:10;2.60;;;2.40;;
5604;SDS011;9297;47.258;11.362;2023-11-18T15:07:37;2.97;;;2.77;;
5604;SDS011;9297;47.258;11.362;2023-11-18T15:10:04;3.47;;;3.17;;
5604;SDS011;9297;47.258;11.362;2023-11-18T15:12:32;2.73;;;2.50;;
5604;SDS011;9297;47.258;11.362;2023-11-18T15:14:59;3.13;;;2.93;;
5604;SDS011;9297;47.258;11.362;2023-11-18T15:17:26;2.80;;;2.60;;